sensor_id;sensor_type;location;lat;lon;timestamp;temperature;humidity
10010;DHT22;5044;48.652;9.250;2023-06-26T00:00:33;21.30;61.20
10010;DHT22;5044;48.652;9.250;2023-06-26T00:03:02;21.40;60.70
10010;DHT22;5044;48.652;9.250;2023-06-26T00:05:29;21.30;62.70
10010;DHT22;5044;48.652;9.250;2023-06-26T00:07:56;21.30;61.50
10010;DHT22;5044;48.652;9.250;2023-06-26T00:10:27;21.30;61.20
10010;DHT22;5044;48.652;9.250;2023-06-26T00:12:54;21.30;63.70
10010;DHT22;5044;48.652;9.250;2023-06-26T00:15:21;21.20;60.10
10010;DHT22;5044;48.652;9.250;2023-06-26T00:17:48;21.10;62.00
10010;DHT22;5044;48.652;9.250;2023-06-26T00:20:16;21.10;61.80
10010;DHT22;5044;48.652;9.250;2023-06-26T00:22:44;21.10;62.80
10010;DHT22;5044;48.652;9.250;2023-06-26T00:25:11;21.00;65.00
10010;DHT22;5044;48.652;9.250;2023-06-26T00:27:40;21.00;61.60
10010;DHT22;5044;48.652;9.250;2023-06-26T00:30:07;21.00;65.00
10010;DHT22;5044;48.652;9.250;2023-06-26T00:32:34;21.00;63.30
10010;DHT22;5044;48.652;9.250;2023-06-26T00:35:01;20.80;68.40
10010;DHT22;5044;48.652;9.250;2023-06-26T00:37:28;20.80;63.60
10010;DHT22;5044;48.652;9.250;2023-06-26T00:39:55;20.90;65.60
10010;DHT22;5044;48.652;9.250;2023-06-26T00:42:22;20.80;66.10
10010;DHT22;5044;48.652;9.250;2023-06-26T00:44:50;20.70;66.90
10010;DHT22;5044;48.652;9.250;2023-06-26T00:47:17;20.70;65.20
10010;DHT22;5044;48.652;9.250;2023-06-26T00:49:45;20.80;63.70
10010;DHT22;5044;48.652;9.250;2023-06-26T00:52:12;20.80;64.20
10010;DHT22;5044;48.652;9.250;2023-06-26T00:54:39;20.80;63.50
10010;DHT22;5044;48.652;9.250;2023-06-26T00:57:06;20.70;62.80
10010;DHT22;5044;48.652;9.250;2023-06-26T00:59:33;20.70;64.10
10010;DHT22;5044;48.652;9.250;2023-06-26T01:02:05;20.60;65.00
10010;DHT22;5044;48.652;9.250;2023-06-26T01:04:33;20.50;67.30
10010;DHT22;5044;48.652;9.250;2023-06-26T01:07:02;20.50;67.80
10010;DHT22;5044;48.652;9.250;2023-06-26T01:09:31;20.60;67.30
10010;DHT22;5044;48.652;9.250;2023-06-26T01:11:58;20.50;64.00
10010;DHT22;5044;48.652;9.250;2023-06-26T01:14:26;20.50;62.70
10010;DHT22;5044;48.652;9.250;2023-06-26T01:16:53;20.40;69.10
10010;DHT22;5044;48.652;9.250;2023-06-26T01:19:28;20.40;66.60
10010;DHT22;5044;48.652;9.250;2023-06-26T01:22:00;20.40;66.80
10010;DHT22;5044;48.652;9.250;2023-06-26T01:24:33;20.40;64.40
10010;DHT22;5044;48.652;9.250;2023-06-26T01:27:05;20.30;64.40
10010;DHT22;5044;48.652;9.250;2023-06-26T01:29:33;20.30;64.30
10010;DHT22;5044;48.652;9.250;2023-06-26T01:32:02;20.30;66.80
10010;DHT22;5044;48.652;9.250;2023-06-26T07:10:46;26.70;62.40
10010;DHT22;5044;48.652;9.250;2023-06-26T07:13:13;26.90;58.60
10010;DHT22;5044;48.652;9.250;2023-06-26T07:15:40;27.10;59.40
10010;DHT22;5044;48.652;9.250;2023-06-26T07:18:06;27.30;58.70
10010;DHT22;5044;48.652;9.250;2023-06-26T07:20:33;27.50;58.60
10010;DHT22;5044;48.652;9.250;2023-06-26T07:23:00;27.80;62.30
10010;DHT22;5044;48.652;9.250;2023-06-26T07:25:27;27.90;55.90
10010;DHT22;5044;48.652;9.250;2023-06-26T07:27:55;27.90;57.30
10010;DHT22;5044;48.652;9.250;2023-06-26T07:30:22;27.70;53.30
10010;DHT22;5044;48.652;9.250;2023-06-26T07:32:49;27.70;53.80
10010;DHT22;5044;48.652;9.250;2023-06-26T07:35:16;27.60;53.30
10010;DHT22;5044;48.652;9.250;2023-06-26T07:37:43;27.80;54.00
10010;DHT22;5044;48.652;9.250;2023-06-26T07:40:10;28.00;54.20
10010;DHT22;5044;48.652;9.250;2023-06-26T07:42:37;28.10;52.00
10010;DHT22;5044;48.652;9.250;2023-06-26T07:45:08;28.20;53.00
10010;DHT22;5044;48.652;9.250;2023-06-26T07:47:37;28.60;53.50
10010;DHT22;5044;48.652;9.250;2023-06-26T07:50:05;28.60;51.60
10010;DHT22;5044;48.652;9.250;2023-06-26T07:52:32;28.30;51.00
10010;DHT22;5044;48.652;9.250;2023-06-26T07:54:58;28.50;51.80
10010;DHT22;5044;48.652;9.250;2023-06-26T07:57:25;28.80;53.80
10010;DHT22;5044;48.652;9.250;2023-06-26T07:59:52;29.00;51.60
10010;DHT22;5044;48.652;9.250;2023-06-26T08:02:20;29.20;53.60
10010;DHT22;5044;48.652;9.250;2023-06-26T08:04:47;29.30;50.80
10010;DHT22;5044;48.652;9.250;2023-06-26T08:07:14;29.20;50.40
10010;DHT22;5044;48.652;9.250;2023-06-26T08:09:41;29.10;49.80
10010;DHT22;5044;48.652;9.250;2023-06-26T08:12:08;29.50;51.30
10010;DHT22;5044;48.652;9.250;2023-06-26T08:14:35;29.60;49.10
10010;DHT22;5044;48.652;9.250;2023-06-26T08:17:01;29.70;49.70
10010;DHT22;5044;48.652;9.250;2023-06-26T08:19:31;29.90;48.60
10010;DHT22;5044;48.652;9.250;2023-06-26T08:22:00;29.80;49.30
10010;DHT22;5044;48.652;9.250;2023-06-26T08:24:27;29.90;48.50
10010;DHT22;5044;48.652;9.250;2023-06-26T08:26:54;29.70;47.40
10010;DHT22;5044;48.652;9.250;2023-06-26T08:29:21;29.90;48.60
10010;DHT22;5044;48.652;9.250;2023-06-26T08:31:48;30.20;48.90
10010;DHT22;5044;48.652;9.250;2023-06-26T08:34:15;30.20;48.10
10010;DHT22;5044;48.652;9.250;2023-06-26T08:36:43;30.40;48.30
10010;DHT22;5044;48.652;9.250;2023-06-26T08:39:10;30.60;47.30
10010;DHT22;5044;48.652;9.250;2023-06-26T08:41:38;30.70;47.60
10010;DHT22;5044;48.652;9.250;2023-06-26T08:44:05;30.90;47.60
10010;DHT22;5044;48.652;9.250;2023-06-26T08:46:32;30.90;47.80
10010;DHT22;5044;48.652;9.250;2023-06-26T08:49:02;30.80;46.00
10010;DHT22;5044;48.652;9.250;2023-06-26T08:51:34;30.70;45.80
10010;DHT22;5044;48.652;9.250;2023-06-26T08:54:08;31.00;48.60
10010;DHT22;5044;48.652;9.250;2023-06-26T08:56:39;31.30;46.50
10010;DHT22;5044;48.652;9.250;2023-06-26T08:59:07;31.40;47.10
10010;DHT22;5044;48.652;9.250;2023-06-26T09:01:36;31.90;48.80
10010;DHT22;5044;48.652;9.250;2023-06-26T09:04:03;31.80;45.80
10010;DHT22;5044;48.652;9.250;2023-06-26T09:06:30;32.00;46.90
10010;DHT22;5044;48.652;9.250;2023-06-26T09:08:56;31.80;44.40
10010;DHT22;5044;48.652;9.250;2023-06-26T09:11:25;31.90;44.60
10010;DHT22;5044;48.652;9.250;2023-06-26T09:13:52;32.50;46.20
10010;DHT22;5044;48.652;9.250;2023-06-26T09:16:24;32.30;45.40
10010;DHT22;5044;48.652;9.250;2023-06-26T09:18:52;32.10;43.80
10010;DHT22;5044;48.652;9.250;2023-06-26T09:21:19;32.40;45.20
10010;DHT22;5044;48.652;9.250;2023-06-26T09:23:49;32.30;43.90
10010;DHT22;5044;48.652;9.250;2023-06-26T09:26:16;32.20;43.80
10010;DHT22;5044;48.652;9.250;2023-06-26T09:28:44;31.80;43.50
10010;DHT22;5044;48.652;9.250;2023-06-26T09:31:12;32.20;45.90
10010;DHT22;5044;48.652;9.250;2023-06-26T09:33:39;32.60;45.30
10010;DHT22;5044;48.652;9.250;2023-06-26T09:36:09;32.80;45.30
10010;DHT22;5044;48.652;9.250;2023-06-26T09:38:44;32.50;46.20
10010;DHT22;5044;48.652;9.250;2023-06-26T09:41:11;32.30;44.20
10010;DHT22;5044;48.652;9.250;2023-06-26T09:43:46;31.90;44.20
10010;DHT22;5044;48.652;9.250;2023-06-26T09:46:15;32.00;46.60
10010;DHT22;5044;48.652;9.250;2023-06-26T09:48:43;32.20;44.40
10010;DHT22;5044;48.652;9.250;2023-06-26T09:51:10;32.80;45.80
10010;DHT22;5044;48.652;9.250;2023-06-26T09:53:36;32.70;43.20
10010;DHT22;5044;48.652;9.250;2023-06-26T09:56:06;32.40;41.50
10010;DHT22;5044;48.652;9.250;2023-06-26T09:58:34;32.60;41.80
10010;DHT22;5044;48.652;9.250;2023-06-26T10:01:03;32.70;41.70
10010;DHT22;5044;48.652;9.250;2023-06-26T10:03:30;32.20;42.50
10010;DHT22;5044;48.652;9.250;2023-06-26T10:05:57;31.60;41.80
10010;DHT22;5044;48.652;9.250;2023-06-26T10:08:25;32.00;44.20
10010;DHT22;5044;48.652;9.250;2023-06-26T10:10:52;32.40;42.60
10010;DHT22;5044;48.652;9.250;2023-06-26T10:13:24;32.20;43.30
10010;DHT22;5044;48.652;9.250;2023-06-26T10:15:54;32.30;41.50
10010;DHT22;5044;48.652;9.250;2023-06-26T10:18:25;31.90;41.40
10010;DHT22;5044;48.652;9.250;2023-06-26T10:20:54;31.60;42.00
10010;DHT22;5044;48.652;9.250;2023-06-26T10:23:23;31.30;42.40
10010;DHT22;5044;48.652;9.250;2023-06-26T10:25:51;31.30;43.40
10010;DHT22;5044;48.652;9.250;2023-06-26T10:28:19;31.40;43.50
10010;DHT22;5044;48.652;9.250;2023-06-26T10:30:51;31.00;43.10
10010;DHT22;5044;48.652;9.250;2023-06-26T10:33:19;30.90;43.40
10010;DHT22;5044;48.652;9.250;2023-06-26T10:35:48;30.80;43.70
10010;DHT22;5044;48.652;9.250;2023-06-26T10:38:17;30.90;44.80
10010;DHT22;5044;48.652;9.250;2023-06-26T10:40:50;30.60;43.30
10010;DHT22;5044;48.652;9.250;2023-06-26T10:43:18;30.60;44.00
10010;DHT22;5044;48.652;9.250;2023-06-26T10:45:45;30.30;43.00
10010;DHT22;5044;48.652;9.250;2023-06-26T10:48:17;31.10;44.10
10010;DHT22;5044;48.652;9.250;2023-06-26T10:50:48;31.60;44.40
10010;DHT22;5044;48.652;9.250;2023-06-26T10:53:21;31.20;42.90
10010;DHT22;5044;48.652;9.250;2023-06-26T10:55:54;30.90;43.50
10010;DHT22;5044;48.652;9.250;2023-06-26T10:58:32;31.10;43.90
10010;DHT22;5044;48.652;9.250;2023-06-26T11:01:14;30.80;44.70
10010;DHT22;5044;48.652;9.250;2023-06-26T11:03:42;30.70;46.50
10010;DHT22;5044;48.652;9.250;2023-06-26T11:06:10;30.50;48.00
10010;DHT22;5044;48.652;9.250;2023-06-26T11:08:47;30.40;48.50
10010;DHT22;5044;48.652;9.250;2023-06-26T11:11:14;30.40;49.20
10010;DHT22;5044;48.652;9.250;2023-06-26T11:13:41;30.30;49.50
10010;DHT22;5044;48.652;9.250;2023-06-26T11:16:08;30.20;49.50
10010;DHT22;5044;48.652;9.250;2023-06-26T11:18:35;30.20;50.50
10010;DHT22;5044;48.652;9.250;2023-06-26T11:21:06;30.20;50.70
10010;DHT22;5044;48.652;9.250;2023-06-26T11:23:36;30.30;50.50
10010;DHT22;5044;48.652;9.250;2023-06-26T11:26:16;31.00;50.20
10010;DHT22;5044;48.652;9.250;2023-06-26T11:28:49;31.20;48.50
10010;DHT22;5044;48.652;9.250;2023-06-26T11:31:27;31.30;50.10
10010;DHT22;5044;48.652;9.250;2023-06-26T11:33:56;31.60;48.40
10010;DHT22;5044;48.652;9.250;2023-06-26T11:36:24;31.90;48.20
10010;DHT22;5044;48.652;9.250;2023-06-26T11:38:57;32.00;47.70
10010;DHT22;5044;48.652;9.250;2023-06-26T11:41:25;31.80;46.70
10010;DHT22;5044;48.652;9.250;2023-06-26T11:43:53;31.50;47.10
10010;DHT22;5044;48.652;9.250;2023-06-26T11:46:21;32.00;47.40
10010;DHT22;5044;48.652;9.250;2023-06-26T11:48:48;32.00;44.80
10010;DHT22;5044;48.652;9.250;2023-06-26T11:51:16;32.20;45.20
10010;DHT22;5044;48.652;9.250;2023-06-26T11:53:43;32.20;45.10
10010;DHT22;5044;48.652;9.250;2023-06-26T11:56:13;32.70;45.60
10010;DHT22;5044;48.652;9.250;2023-06-26T11:58:58;32.70;43.90
10010;DHT22;5044;48.652;9.250;2023-06-26T12:01:26;32.80;45.30
10010;DHT22;5044;48.652;9.250;2023-06-26T12:03:59;32.20;45.20
10010;DHT22;5044;48.652;9.250;2023-06-26T12:06:27;31.40;45.50
10010;DHT22;5044;48.652;9.250;2023-06-26T12:08:56;31.10;46.20
10010;DHT22;5044;48.652;9.250;2023-06-26T12:11:26;31.00;46.20
10010;DHT22;5044;48.652;9.250;2023-06-26T12:13:54;30.40;45.70
10010;DHT22;5044;48.652;9.250;2023-06-26T12:16:21;30.80;47.80
10010;DHT22;5044;48.652;9.250;2023-06-26T12:18:48;30.80;47.30
10010;DHT22;5044;48.652;9.250;2023-06-26T12:21:44;31.20;47.80
10010;DHT22;5044;48.652;9.250;2023-06-26T12:24:13;31.60;46.90
10010;DHT22;5044;48.652;9.250;2023-06-26T12:26:43;32.20;47.00
10010;DHT22;5044;48.652;9.250;2023-06-26T12:29:12;32.20;46.50
10010;DHT22;5044;48.652;9.250;2023-06-26T12:31:43;32.00;47.20
10010;DHT22;5044;48.652;9.250;2023-06-26T12:34:10;31.30;47.40
10010;DHT22;5044;48.652;9.250;2023-06-26T12:36:41;30.90;48.30
10010;DHT22;5044;48.652;9.250;2023-06-26T12:39:09;30.80;49.20
10010;DHT22;5044;48.652;9.250;2023-06-26T12:41:46;30.60;48.90
10010;DHT22;5044;48.652;9.250;2023-06-26T12:44:24;30.50;50.30
10010;DHT22;5044;48.652;9.250;2023-06-26T12:46:57;31.10;50.90
10010;DHT22;5044;48.652;9.250;2023-06-26T12:49:34;31.30;49.80
10010;DHT22;5044;48.652;9.250;2023-06-26T12:52:03;31.80;49.00
10010;DHT22;5044;48.652;9.250;2023-06-26T12:54:30;32.20;48.70
10010;DHT22;5044;48.652;9.250;2023-06-26T12:56:58;31.40;48.30
10010;DHT22;5044;48.652;9.250;2023-06-26T12:59:25;31.60;49.20
10010;DHT22;5044;48.652;9.250;2023-06-26T13:01:52;32.20;49.10
10010;DHT22;5044;48.652;9.250;2023-06-26T13:04:19;32.00;48.60
10010;DHT22;5044;48.652;9.250;2023-06-26T13:06:46;32.00;48.60
10010;DHT22;5044;48.652;9.250;2023-06-26T13:09:13;32.30;49.30
10010;DHT22;5044;48.652;9.250;2023-06-26T13:11:40;32.30;48.80
10010;DHT22;5044;48.652;9.250;2023-06-26T13:14:08;32.40;49.30
10010;DHT22;5044;48.652;9.250;2023-06-26T13:16:36;32.60;48.40
10010;DHT22;5044;48.652;9.250;2023-06-26T13:19:03;32.80;47.70
10010;DHT22;5044;48.652;9.250;2023-06-26T13:21:30;32.10;47.40
10010;DHT22;5044;48.652;9.250;2023-06-26T13:23:56;31.70;49.90
10010;DHT22;5044;48.652;9.250;2023-06-26T13:26:25;32.20;48.60
10010;DHT22;5044;48.652;9.250;2023-06-26T13:28:54;32.80;49.70
10010;DHT22;5044;48.652;9.250;2023-06-26T13:31:23;33.10;47.90
10010;DHT22;5044;48.652;9.250;2023-06-26T13:33:51;33.10;47.80
10010;DHT22;5044;48.652;9.250;2023-06-26T13:36:18;33.10;48.40
10010;DHT22;5044;48.652;9.250;2023-06-26T13:38:46;33.40;47.70
10010;DHT22;5044;48.652;9.250;2023-06-26T13:41:15;33.00;46.60
10010;DHT22;5044;48.652;9.250;2023-06-26T13:43:41;33.00;47.30
10010;DHT22;5044;48.652;9.250;2023-06-26T13:46:08;32.60;46.80
10010;DHT22;5044;48.652;9.250;2023-06-26T13:48:36;31.90;47.60
10010;DHT22;5044;48.652;9.250;2023-06-26T13:51:03;32.20;49.00
10010;DHT22;5044;48.652;9.250;2023-06-26T13:53:30;32.60;48.20
10010;DHT22;5044;48.652;9.250;2023-06-26T13:55:57;32.00;47.20
10010;DHT22;5044;48.652;9.250;2023-06-26T13:58:24;32.50;49.00
10010;DHT22;5044;48.652;9.250;2023-06-26T14:00:52;32.60;48.00
10010;DHT22;5044;48.652;9.250;2023-06-26T14:03:19;32.30;47.20
10010;DHT22;5044;48.652;9.250;2023-06-26T14:05:48;31.90;48.30
10010;DHT22;5044;48.652;9.250;2023-06-26T14:08:14;32.10;48.90
10010;DHT22;5044;48.652;9.250;2023-06-26T14:10:41;32.40;48.60
10010;DHT22;5044;48.652;9.250;2023-06-26T14:13:08;31.90;46.70
10010;DHT22;5044;48.652;9.250;2023-06-26T14:15:37;32.00;46.70
10010;DHT22;5044;48.652;9.250;2023-06-26T14:18:05;32.20;46.90
10010;DHT22;5044;48.652;9.250;2023-06-26T14:20:33;32.40;47.20
10010;DHT22;5044;48.652;9.250;2023-06-26T14:23:02;32.30;46.60
10010;DHT22;5044;48.652;9.250;2023-06-26T14:25:29;32.00;47.30
10010;DHT22;5044;48.652;9.250;2023-06-26T14:27:58;31.90;47.00
10010;DHT22;5044;48.652;9.250;2023-06-26T14:30:25;31.80;46.20
10010;DHT22;5044;48.652;9.250;2023-06-26T14:32:52;31.70;46.20
10010;DHT22;5044;48.652;9.250;2023-06-26T14:35:19;31.90;47.00
10010;DHT22;5044;48.652;9.250;2023-06-26T14:37:48;31.50;45.70
10010;DHT22;5044;48.652;9.250;2023-06-26T14:40:16;31.30;45.70
10010;DHT22;5044;48.652;9.250;2023-06-26T14:42:43;31.40;46.20
10010;DHT22;5044;48.652;9.250;2023-06-26T14:45:11;31.80;47.00
10010;DHT22;5044;48.652;9.250;2023-06-26T14:47:38;31.80;45.20
10010;DHT22;5044;48.652;9.250;2023-06-26T14:50:06;31.90;44.80
10010;DHT22;5044;48.652;9.250;2023-06-26T14:52:33;31.90;44.50
10010;DHT22;5044;48.652;9.250;2023-06-26T14:55:00;31.50;45.00
10010;DHT22;5044;48.652;9.250;2023-06-26T14:57:28;31.80;44.40
10010;DHT22;5044;48.652;9.250;2023-06-26T14:59:56;32.00;44.90
10010;DHT22;5044;48.652;9.250;2023-06-26T15:02:22;32.00;44.50
10010;DHT22;5044;48.652;9.250;2023-06-26T15:04:49;31.30;44.60
10010;DHT22;5044;48.652;9.250;2023-06-26T15:07:16;31.00;44.70
10010;DHT22;5044;48.652;9.250;2023-06-26T15:09:43;31.10;45.70
10010;DHT22;5044;48.652;9.250;2023-06-26T15:12:10;30.70;44.80
10010;DHT22;5044;48.652;9.250;2023-06-26T15:14:38;30.70;45.10
10010;DHT22;5044;48.652;9.250;2023-06-26T15:17:05;30.40;44.90
10010;DHT22;5044;48.652;9.250;2023-06-26T15:19:33;31.00;47.70
10010;DHT22;5044;48.652;9.250;2023-06-26T15:22:00;31.10;45.20
10010;DHT22;5044;48.652;9.250;2023-06-26T15:24:27;31.00;45.40
10010;DHT22;5044;48.652;9.250;2023-06-26T15:26:54;30.50;44.80
10010;DHT22;5044;48.652;9.250;2023-06-26T15:29:20;30.30;45.40
10010;DHT22;5044;48.652;9.250;2023-06-26T15:31:49;30.30;46.20
10010;DHT22;5044;48.652;9.250;2023-06-26T15:34:15;29.90;46.00
10010;DHT22;5044;48.652;9.250;2023-06-26T15:36:42;30.00;47.00
10010;DHT22;5044;48.652;9.250;2023-06-26T15:39:10;30.10;47.30
10010;DHT22;5044;48.652;9.250;2023-06-26T15:41:37;30.10;47.00
10010;DHT22;5044;48.652;9.250;2023-06-26T15:44:04;30.00;47.80
10010;DHT22;5044;48.652;9.250;2023-06-26T15:46:35;29.80;47.10
10010;DHT22;5044;48.652;9.250;2023-06-26T15:49:03;29.30;47.60
10010;DHT22;5044;48.652;9.250;2023-06-26T15:51:33;29.30;47.90
10010;DHT22;5044;48.652;9.250;2023-06-26T15:54:03;29.10;48.30
10010;DHT22;5044;48.652;9.250;2023-06-26T15:56:32;29.30;48.90
10010;DHT22;5044;48.652;9.250;2023-06-26T15:59:00;29.50;49.50
10010;DHT22;5044;48.652;9.250;2023-06-26T16:01:28;29.10;48.70
10010;DHT22;5044;48.652;9.250;2023-06-26T16:03:55;28.90;49.10
10010;DHT22;5044;48.652;9.250;2023-06-26T16:06:23;29.20;49.80
10010;DHT22;5044;48.652;9.250;2023-06-26T16:08:50;28.80;49.10
10010;DHT22;5044;48.652;9.250;2023-06-26T16:11:18;28.60;49.90
10010;DHT22;5044;48.652;9.250;2023-06-26T16:13:45;28.40;49.60
10010;DHT22;5044;48.652;9.250;2023-06-26T16:16:12;28.20;49.50
10010;DHT22;5044;48.652;9.250;2023-06-26T16:18:40;28.10;50.20
10010;DHT22;5044;48.652;9.250;2023-06-26T16:21:07;28.40;51.10
10010;DHT22;5044;48.652;9.250;2023-06-26T16:23:35;28.10;50.00
10010;DHT22;5044;48.652;9.250;2023-06-26T16:26:02;28.20;50.50
10010;DHT22;5044;48.652;9.250;2023-06-26T16:28:29;28.30;51.00
10010;DHT22;5044;48.652;9.250;2023-06-26T16:30:56;28.00;51.20
10010;DHT22;5044;48.652;9.250;2023-06-26T16:33:23;27.80;50.50
10010;DHT22;5044;48.652;9.250;2023-06-26T16:35:50;27.80;51.50
10010;DHT22;5044;48.652;9.250;2023-06-26T16:38:16;27.80;51.60
10010;DHT22;5044;48.652;9.250;2023-06-26T16:40:45;27.70;51.00
10010;DHT22;5044;48.652;9.250;2023-06-26T16:43:12;27.50;51.20
10010;DHT22;5044;48.652;9.250;2023-06-26T16:45:40;27.30;51.30
10010;DHT22;5044;48.652;9.250;2023-06-26T16:48:07;27.20;51.80
10010;DHT22;5044;48.652;9.250;2023-06-26T16:50:34;27.10;51.60
10010;DHT22;5044;48.652;9.250;2023-06-26T16:53:01;27.30;52.40
10010;DHT22;5044;48.652;9.250;2023-06-26T16:55:28;27.00;51.30
10010;DHT22;5044;48.652;9.250;2023-06-26T16:57:56;27.20;51.60
10010;DHT22;5044;48.652;9.250;2023-06-26T17:00:23;27.00;51.10
10010;DHT22;5044;48.652;9.250;2023-06-26T17:02:51;27.20;52.00
10010;DHT22;5044;48.652;9.250;2023-06-26T17:05:18;27.10;50.40
10010;DHT22;5044;48.652;9.250;2023-06-26T17:07:45;27.00;50.10
10010;DHT22;5044;48.652;9.250;2023-06-26T17:10:13;26.70;49.90
10010;DHT22;5044;48.652;9.250;2023-06-26T17:12:41;26.70;49.80
10010;DHT22;5044;48.652;9.250;2023-06-26T17:15:11;26.60;50.00
10010;DHT22;5044;48.652;9.250;2023-06-26T17:17:38;26.40;49.20
10010;DHT22;5044;48.652;9.250;2023-06-26T17:20:06;26.40;49.00
10010;DHT22;5044;48.652;9.250;2023-06-26T17:22:34;26.20;49.10
10010;DHT22;5044;48.652;9.250;2023-06-26T17:25:02;26.30;49.50
10010;DHT22;5044;48.652;9.250;2023-06-26T17:27:30;26.20;48.50
10010;DHT22;5044;48.652;9.250;2023-06-26T17:29:58;26.20;48.10
10010;DHT22;5044;48.652;9.250;2023-06-26T17:32:26;26.10;47.10
10010;DHT22;5044;48.652;9.250;2023-06-26T17:34:53;26.40;47.70
10010;DHT22;5044;48.652;9.250;2023-06-26T17:37:21;26.10;46.60
10010;DHT22;5044;48.652;9.250;2023-06-26T17:39:49;26.10;46.40
10010;DHT22;5044;48.652;9.250;2023-06-26T17:42:16;26.10;46.40
10010;DHT22;5044;48.652;9.250;2023-06-26T17:44:43;26.10;45.90
10010;DHT22;5044;48.652;9.250;2023-06-26T17:47:10;25.90;45.50
10010;DHT22;5044;48.652;9.250;2023-06-26T17:49:38;25.90;45.70
10010;DHT22;5044;48.652;9.250;2023-06-26T17:52:05;25.90;45.90
10010;DHT22;5044;48.652;9.250;2023-06-26T17:54:33;25.70;45.50
10010;DHT22;5044;48.652;9.250;2023-06-26T17:57:00;25.60;45.80
10010;DHT22;5044;48.652;9.250;2023-06-26T17:59:27;25.70;45.80
10010;DHT22;5044;48.652;9.250;2023-06-26T18:01:54;25.50;45.90
10010;DHT22;5044;48.652;9.250;2023-06-26T18:04:24;25.40;45.70
10010;DHT22;5044;48.652;9.250;2023-06-26T18:06:52;25.20;45.40
10010;DHT22;5044;48.652;9.250;2023-06-26T18:09:19;25.20;45.70
10010;DHT22;5044;48.652;9.250;2023-06-26T18:11:46;25.10;45.60
10010;DHT22;5044;48.652;9.250;2023-06-26T18:14:13;25.10;45.70
10010;DHT22;5044;48.652;9.250;2023-06-26T18:16:40;25.10;45.80
10010;DHT22;5044;48.652;9.250;2023-06-26T18:19:07;25.00;45.70
10010;DHT22;5044;48.652;9.250;2023-06-26T18:21:34;25.00;45.80
10010;DHT22;5044;48.652;9.250;2023-06-26T18:24:03;25.10;46.60
10010;DHT22;5044;48.652;9.250;2023-06-26T18:26:31;24.90;46.20
10010;DHT22;5044;48.652;9.250;2023-06-26T18:28:58;24.80;45.60
10010;DHT22;5044;48.652;9.250;2023-06-26T18:31:25;24.60;46.30
10010;DHT22;5044;48.652;9.250;2023-06-26T18:33:52;24.60;46.60
10010;DHT22;5044;48.652;9.250;2023-06-26T18:36:19;24.40;46.60
10010;DHT22;5044;48.652;9.250;2023-06-26T18:38:46;24.40;46.60
10010;DHT22;5044;48.652;9.250;2023-06-26T18:41:14;24.60;47.30
10010;DHT22;5044;48.652;9.250;2023-06-26T18:43:41;24.70;48.40
10010;DHT22;5044;48.652;9.250;2023-06-26T18:46:10;24.70;48.20
10010;DHT22;5044;48.652;9.250;2023-06-26T18:48:37;24.50;47.50
10010;DHT22;5044;48.652;9.250;2023-06-26T18:51:03;23.90;45.60
10010;DHT22;5044;48.652;9.250;2023-06-26T18:53:30;24.00;46.30
10010;DHT22;5044;48.652;9.250;2023-06-26T18:55:57;24.00;46.40
10010;DHT22;5044;48.652;9.250;2023-06-26T18:58:26;23.80;46.30
10010;DHT22;5044;48.652;9.250;2023-06-26T19:00:52;23.80;46.70
10010;DHT22;5044;48.652;9.250;2023-06-26T19:03:19;23.70;46.20
10010;DHT22;5044;48.652;9.250;2023-06-26T19:05:46;23.50;46.00
10010;DHT22;5044;48.652;9.250;2023-06-26T19:08:13;23.40;46.40
10010;DHT22;5044;48.652;9.250;2023-06-26T19:10:40;23.50;47.20
10010;DHT22;5044;48.652;9.250;2023-06-26T19:13:07;23.40;46.80
10010;DHT22;5044;48.652;9.250;2023-06-26T19:15:36;23.20;46.50
10010;DHT22;5044;48.652;9.250;2023-06-26T19:18:03;23.20;47.00
10010;DHT22;5044;48.652;9.250;2023-06-26T19:20:29;23.00;46.70
10010;DHT22;5044;48.652;9.250;2023-06-26T19:22:56;23.00;47.40
10010;DHT22;5044;48.652;9.250;2023-06-26T19:25:23;23.00;48.10
10010;DHT22;5044;48.652;9.250;2023-06-26T19:27:50;22.90;47.90
10010;DHT22;5044;48.652;9.250;2023-06-26T19:30:17;22.80;47.80
10010;DHT22;5044;48.652;9.250;2023-06-26T19:32:45;22.90;49.10
10010;DHT22;5044;48.652;9.250;2023-06-26T19:35:12;22.90;49.00
10010;DHT22;5044;48.652;9.250;2023-06-26T19:37:39;22.90;49.00
10010;DHT22;5044;48.652;9.250;2023-06-26T19:40:07;23.00;50.00
10010;DHT22;5044;48.652;9.250;2023-06-26T19:42:34;23.00;49.70
10010;DHT22;5044;48.652;9.250;2023-06-26T19:45:01;22.70;48.70
10010;DHT22;5044;48.652;9.250;2023-06-26T19:47:28;22.60;48.90
10010;DHT22;5044;48.652;9.250;2023-06-26T19:49:58;22.80;50.10
10010;DHT22;5044;48.652;9.250;2023-06-26T19:52:25;22.60;49.30
10010;DHT22;5044;48.652;9.250;2023-06-26T19:54:53;22.60;49.90
10010;DHT22;5044;48.652;9.250;2023-06-26T19:57:20;22.40;49.50
10010;DHT22;5044;48.652;9.250;2023-06-26T19:59:47;22.40;50.00
10010;DHT22;5044;48.652;9.250;2023-06-26T20:02:14;22.50;50.20
10010;DHT22;5044;48.652;9.250;2023-06-26T20:04:41;22.50;50.60
10010;DHT22;5044;48.652;9.250;2023-06-26T20:07:10;22.50;50.30
10010;DHT22;5044;48.652;9.250;2023-06-26T20:09:37;22.20;48.90
10010;DHT22;5044;48.652;9.250;2023-06-26T20:12:05;22.10;49.70
10010;DHT22;5044;48.652;9.250;2023-06-26T20:14:33;21.90;48.90
10010;DHT22;5044;48.652;9.250;2023-06-26T20:17:00;21.90;49.80
10010;DHT22;5044;48.652;9.250;2023-06-26T20:19:27;21.80;49.20
10010;DHT22;5044;48.652;9.250;2023-06-26T20:21:55;22.00;51.30
10010;DHT22;5044;48.652;9.250;2023-06-26T20:24:25;22.00;50.30
10010;DHT22;5044;48.652;9.250;2023-06-26T20:26:52;22.20;51.70
10010;DHT22;5044;48.652;9.250;2023-06-26T20:29:19;22.00;50.30
10010;DHT22;5044;48.652;9.250;2023-06-26T20:31:46;21.70;49.50
10010;DHT22;5044;48.652;9.250;2023-06-26T20:34:13;21.60;49.90
10010;DHT22;5044;48.652;9.250;2023-06-26T20:36:40;21.40;50.20
10010;DHT22;5044;48.652;9.250;2023-06-26T20:39:07;21.30;49.50
10010;DHT22;5044;48.652;9.250;2023-06-26T20:41:37;21.30;50.10
10010;DHT22;5044;48.652;9.250;2023-06-26T20:44:04;21.30;51.00
10010;DHT22;5044;48.652;9.250;2023-06-26T20:46:32;21.50;51.90
10010;DHT22;5044;48.652;9.250;2023-06-26T20:49:01;21.50;51.10
10010;DHT22;5044;48.652;9.250;2023-06-26T20:51:29;21.50;50.80
10010;DHT22;5044;48.652;9.250;2023-06-26T20:53:56;21.30;51.10
10010;DHT22;5044;48.652;9.250;2023-06-26T20:56:23;21.20;51.00
10010;DHT22;5044;48.652;9.250;2023-06-26T20:58:52;21.20;51.10
10010;DHT22;5044;48.652;9.250;2023-06-26T21:01:18;21.20;51.80
10010;DHT22;5044;48.652;9.250;2023-06-26T21:03:46;21.20;51.80
10010;DHT22;5044;48.652;9.250;2023-06-26T21:06:12;21.10;52.00
10010;DHT22;5044;48.652;9.250;2023-06-26T21:08:39;21.20;52.70
10010;DHT22;5044;48.652;9.250;2023-06-26T21:11:06;21.10;52.30
10010;DHT22;5044;48.652;9.250;2023-06-26T21:13:34;21.10;53.00
10010;DHT22;5044;48.652;9.250;2023-06-26T21:16:08;21.00;52.40
10010;DHT22;5044;48.652;9.250;2023-06-26T21:18:39;20.90;53.30
10010;DHT22;5044;48.652;9.250;2023-06-26T21:21:08;21.00;54.10
10010;DHT22;5044;48.652;9.250;2023-06-26T21:23:46;21.00;54.40
10010;DHT22;5044;48.652;9.250;2023-06-26T21:26:14;21.10;54.30